sensor_id;sensor_type;location;lat;lon;timestamp;P1;durP1;ratioP1;P2;durP2;ratioP2
48835;SDS011;62581;47.342;7.908;2022-08-01T00:02:18;7.20;;;5.45;;
48835;SDS011;62581;47.342;7.908;2022-08-01T00:04:45;7.90;;;5.32;;
48835;SDS011;62581;47.342;7.908;2022-08-01T00:07:12;8.23;;;5.57;;
48835;SDS011;62581;47.342;7.908;2022-08-01T00:09:38;8.20;;;5.50;;
48835;SDS011;62581;47.342;7.908;2022-08-01T00:12:05;8.93;;;5.70;;
48835;SDS011;62581;47.342;7.908;2022-08-01T00:14:34;8.82;;;5.43;;
48835;SDS011;62581;47.342;7.908;2022-08-01T00:19:28;7.53;;;6.00;;
48835;SDS011;62581;47.342;7.908;2022-08-01T00:21:55;6.78;;;5.50;;
48835;SDS011;62581;47.342;7.908;2022-08-01T00:24:22;8.50;;;5.80;;
48835;SDS011;62581;47.342;7.908;2022-08-01T00:26:48;8.38;;;5.90;;
48835;SDS011;62581;47.342;7.908;2022-08-01T00:29:15;8.05;;;5.88;;
48835;SDS011;62581;47.342;7.908;2022-08-01T00:31:44;10.02;;;5.55;;
48835;SDS011;62581;47.342;7.908;2022-08-01T00:34:10;7.30;;;5.38;;
48835;SDS011;62581;47.342;7.908;2022-08-01T00:36:37;6.88;;;5.70;;
48835;SDS011;62581;47.342;7.908;2022-08-01T00:39:04;6.63;;;6.03;;
48835;SDS011;62581;47.342;7.908;2022-08-01T00:41:31;6.50;;;5.78;;
48835;SDS011;62581;47.342;7.908;2022-08-01T00:44:01;8.93;;;6.15;;
48835;SDS011;62581;47.342;7.908;2022-08-01T00:46:29;6.60;;;5.75;;
48835;SDS011;62581;47.342;7.908;2022-08-01T00:48:58;7.18;;;5.90;;
48835;SDS011;62581;47.342;7.908;2022-08-01T00:51:25;9.80;;;6.15;;
48835;SDS011;62581;47.342;7.908;2022-08-01T00:53:52;8.35;;;6.28;;
48835;SDS011;62581;47.342;7.908;2022-08-01T00:56:21;9.47;;;6.40;;
48835;SDS011;62581;47.342;7.908;2022-08-01T00:58:50;7.60;;;5.57;;
48835;SDS011;62581;47.342;7.908;2022-08-01T01:01:18;9.75;;;5.45;;
48835;SDS011;62581;47.342;7.908;2022-08-01T01:03:47;6.00;;;5.20;;
48835;SDS011;62581;47.342;7.908;2022-08-01T01:06:22;7.13;;;5.78;;
48835;SDS011;62581;47.342;7.908;2022-08-01T01:08:54;10.65;;;5.82;;
48835;SDS011;62581;47.342;7.908;2022-08-01T01:11:29;12.35;;;5.97;;
48835;SDS011;62581;47.342;7.908;2022-08-01T01:14:04;9.35;;;5.88;;
48835;SDS011;62581;47.342;7.908;2022-08-01T01:16:36;10.93;;;6.15;;
48835;SDS011;62581;47.342;7.908;2022-08-01T01:19:08;9.43;;;5.85;;
48835;SDS011;62581;47.342;7.908;2022-08-01T01:21:54;10.35;;;6.05;;
48835;SDS011;62581;47.342;7.908;2022-08-01T01:24:44;6.78;;;5.43;;
48835;SDS011;62581;47.342;7.908;2022-08-01T01:27:28;7.95;;;5.93;;
48835;SDS011;62581;47.342;7.908;2022-08-01T01:30:04;6.72;;;5.80;;
48835;SDS011;62581;47.342;7.908;2022-08-01T01:32:33;8.02;;;5.88;;
48835;SDS011;62581;47.342;7.908;2022-08-01T01:35:04;7.32;;;5.78;;
48835;SDS011;62581;47.342;7.908;2022-08-01T01:37:34;7.78;;;6.20;;
48835;SDS011;62581;47.342;7.908;2022-08-01T01:40:05;8.75;;;5.53;;
48835;SDS011;62581;47.342;7.908;2022-08-01T01:42:33;7.40;;;5.63;;
48835;SDS011;62581;47.342;7.908;2022-08-01T01:45:04;8.35;;;5.60;;
48835;SDS011;62581;47.342;7.908;2022-08-01T01:47:33;8.32;;;5.50;;
48835;SDS011;62581;47.342;7.908;2022-08-01T01:50:02;5.95;;;5.22;;
48835;SDS011;62581;47.342;7.908;2022-08-01T01:52:31;8.27;;;5.82;;
48835;SDS011;62581;47.342;7.908;2022-08-01T01:54:59;8.90;;;5.53;;
48835;SDS011;62581;47.342;7.908;2022-08-01T01:57:31;7.80;;;5.57;;
48835;SDS011;62581;47.342;7.908;2022-08-01T01:59:59;8.83;;;5.87;;
48835;SDS011;62581;47.342;7.908;2022-08-01T02:02:28;9.40;;;5.03;;
48835;SDS011;62581;47.342;7.908;2022-08-01T02:04:56;9.50;;;5.60;;
48835;SDS011;62581;47.342;7.908;2022-08-01T02:07:24;6.35;;;5.57;;
48835;SDS011;62581;47.342;7.908;2022-08-01T02:09:53;6.47;;;5.30;;
48835;SDS011;62581;47.342;7.908;2022-08-01T02:12:21;9.82;;;5.82;;
48835;SDS011;62581;47.342;7.908;2022-08-01T02:14:50;7.88;;;5.95;;
48835;SDS011;62581;47.342;7.908;2022-08-01T02:17:19;10.65;;;5.85;;
48835;SDS011;62581;47.342;7.908;2022-08-01T02:19:48;7.00;;;5.18;;
48835;SDS011;62581;47.342;7.908;2022-08-01T02:22:16;7.75;;;6.15;;
48835;SDS011;62581;47.342;7.908;2022-08-01T02:24:49;7.72;;;5.35;;
48835;SDS011;62581;47.342;7.908;2022-08-01T02:27:22;8.45;;;5.93;;
48835;SDS011;62581;47.342;7.908;2022-08-01T02:29:54;9.15;;;6.28;;
48835;SDS011;62581;47.342;7.908;2022-08-01T02:32:26;8.35;;;6.07;;
48835;SDS011;62581;47.342;7.908;2022-08-01T02:35:04;7.73;;;6.07;;
48835;SDS011;62581;47.342;7.908;2022-08-01T02:37:36;9.93;;;5.78;;
48835;SDS011;62581;47.342;7.908;2022-08-01T02:40:06;6.95;;;6.00;;
48835;SDS011;62581;47.342;7.908;2022-08-01T02:42:37;10.20;;;6.00;;
48835;SDS011;62581;47.342;7.908;2022-08-01T02:45:05;8.63;;;6.25;;
48835;SDS011;62581;47.342;7.908;2022-08-01T02:47:34;6.65;;;5.53;;
48835;SDS011;62581;47.342;7.908;2022-08-01T02:50:05;9.02;;;6.03;;
48835;SDS011;62581;47.342;7.908;2022-08-01T02:52:34;6.82;;;5.65;;
48835;SDS011;62581;47.342;7.908;2022-08-01T02:57:31;5.88;;;5.32;;
48835;SDS011;62581;47.342;7.908;2022-08-01T02:59:59;6.20;;;5.60;;
48835;SDS011;62581;47.342;7.908;2022-08-01T03:02:27;9.05;;;5.90;;
48835;SDS011;62581;47.342;7.908;2022-08-01T03:04:56;6.68;;;5.40;;
48835;SDS011;62581;47.342;7.908;2022-08-01T03:07:26;7.80;;;5.78;;
48835;SDS011;62581;47.342;7.908;2022-08-01T03:09:55;12.82;;;5.80;;
48835;SDS011;62581;47.342;7.908;2022-08-01T03:12:24;7.38;;;5.63;;
48835;SDS011;62581;47.342;7.908;2022-08-01T03:14:54;8.93;;;5.22;;
48835;SDS011;62581;47.342;7.908;2022-08-01T03:17:24;9.32;;;5.78;;
48835;SDS011;62581;47.342;7.908;2022-08-01T03:19:53;8.27;;;5.43;;
48835;SDS011;62581;47.342;7.908;2022-08-01T03:22:23;6.75;;;5.50;;
48835;SDS011;62581;47.342;7.908;2022-08-01T03:24:53;7.97;;;5.53;;
48835;SDS011;62581;47.342;7.908;2022-08-01T03:27:22;6.95;;;5.57;;
48835;SDS011;62581;47.342;7.908;2022-08-01T03:29:50;7.70;;;5.88;;
48835;SDS011;62581;47.342;7.908;2022-08-01T03:32:21;6.22;;;5.22;;
48835;SDS011;62581;47.342;7.908;2022-08-01T03:34:49;7.63;;;5.43;;
48835;SDS011;62581;47.342;7.908;2022-08-01T03:37:17;6.35;;;5.57;;
48835;SDS011;62581;47.342;7.908;2022-08-01T03:39:52;7.43;;;6.10;;
48835;SDS011;62581;47.342;7.908;2022-08-01T03:42:27;8.00;;;5.85;;
48835;SDS011;62581;47.342;7.908;2022-08-01T03:44:59;8.02;;;5.32;;
48835;SDS011;62581;47.342;7.908;2022-08-01T03:47:29;7.15;;;5.82;;
48835;SDS011;62581;47.342;7.908;2022-08-01T03:49:58;7.43;;;5.25;;
48835;SDS011;62581;47.342;7.908;2022-08-01T03:52:27;7.20;;;5.60;;
48835;SDS011;62581;47.342;7.908;2022-08-01T03:54:58;6.53;;;5.32;;
48835;SDS011;62581;47.342;7.908;2022-08-01T03:57:30;7.22;;;5.90;;
48835;SDS011;62581;47.342;7.908;2022-08-01T03:59:57;9.93;;;6.70;;
48835;SDS011;62581;47.342;7.908;2022-08-01T04:02:25;12.97;;;6.13;;
48835;SDS011;62581;47.342;7.908;2022-08-01T04:04:53;8.43;;;6.10;;
48835;SDS011;62581;47.342;7.908;2022-08-01T04:07:21;6.85;;;5.53;;
48835;SDS011;62581;47.342;7.908;2022-08-01T04:09:49;9.70;;;5.93;;
48835;SDS011;62581;47.342;7.908;2022-08-01T04:12:17;7.30;;;6.03;;
48835;SDS011;62581;47.342;7.908;2022-08-01T04:14:45;7.45;;;5.95;;
48835;SDS011;62581;47.342;7.908;2022-08-01T04:17:12;7.30;;;5.45;;
48835;SDS011;62581;47.342;7.908;2022-08-01T04:19:39;6.30;;;5.70;;
48835;SDS011;62581;47.342;7.908;2022-08-01T04:22:07;9.85;;;6.05;;
48835;SDS011;62581;47.342;7.908;2022-08-01T04:24:35;6.05;;;5.40;;
48835;SDS011;62581;47.342;7.908;2022-08-01T04:27:04;11.75;;;5.53;;
48835;SDS011;62581;47.342;7.908;2022-08-01T04:29:37;7.13;;;5.95;;
48835;SDS011;62581;47.342;7.908;2022-08-01T04:32:05;6.07;;;5.40;;
48835;SDS011;62581;47.342;7.908;2022-08-01T04:34:34;8.68;;;6.05;;
48835;SDS011;62581;47.342;7.908;2022-08-01T04:37:05;8.02;;;5.55;;
48835;SDS011;62581;47.342;7.908;2022-08-01T04:39:35;9.48;;;5.88;;
48835;SDS011;62581;47.342;7.908;2022-08-01T04:42:05;7.18;;;5.90;;
48835;SDS011;62581;47.342;7.908;2022-08-01T04:44:33;11.23;;;5.60;;
48835;SDS011;62581;47.342;7.908;2022-08-01T04:47:02;12.93;;;5.68;;
48835;SDS011;62581;47.342;7.908;2022-08-01T04:49:32;7.00;;;5.47;;
48835;SDS011;62581;47.342;7.908;2022-08-01T04:52:00;7.65;;;5.35;;
48835;SDS011;62581;47.342;7.908;2022-08-01T04:54:28;7.57;;;5.93;;
48835;SDS011;62581;47.342;7.908;2022-08-01T04:56:58;8.32;;;6.30;;
48835;SDS011;62581;47.342;7.908;2022-08-01T04:59:25;8.52;;;5.80;;
48835;SDS011;62581;47.342;7.908;2022-08-01T05:02:07;7.22;;;5.75;;
48835;SDS011;62581;47.342;7.908;2022-08-01T05:04:35;7.95;;;5.63;;
48835;SDS011;62581;47.342;7.908;2022-08-01T05:07:02;16.58;;;6.93;;
48835;SDS011;62581;47.342;7.908;2022-08-01T05:09:29;9.27;;;5.75;;
48835;SDS011;62581;47.342;7.908;2022-08-01T05:11:57;7.05;;;5.00;;
48835;SDS011;62581;47.342;7.908;2022-08-01T05:14:24;7.75;;;5.97;;
48835;SDS011;62581;47.342;7.908;2022-08-01T05:16:52;8.70;;;5.32;;
48835;SDS011;62581;47.342;7.908;2022-08-01T05:19:20;8.93;;;5.95;;
48835;SDS011;62581;47.342;7.908;2022-08-01T05:24:14;8.80;;;6.00;;
48835;SDS011;62581;47.342;7.908;2022-08-01T05:26:41;10.77;;;5.38;;
48835;SDS011;62581;47.342;7.908;2022-08-01T05:29:08;6.35;;;5.70;;
48835;SDS011;62581;47.342;7.908;2022-08-01T05:31:35;9.07;;;5.72;;
48835;SDS011;62581;47.342;7.908;2022-08-01T05:34:02;6.22;;;5.38;;
48835;SDS011;62581;47.342;7.908;2022-08-01T05:36:30;7.18;;;5.63;;
48835;SDS011;62581;47.342;7.908;2022-08-01T05:38:57;9.32;;;5.80;;
48835;SDS011;62581;47.342;7.908;2022-08-01T05:41:24;8.57;;;5.95;;
48835;SDS011;62581;47.342;7.908;2022-08-01T05:43:51;9.30;;;4.97;;
48835;SDS011;62581;47.342;7.908;2022-08-01T05:46:18;7.20;;;5.53;;
48835;SDS011;62581;47.342;7.908;2022-08-01T05:48:45;9.32;;;5.78;;
48835;SDS011;62581;47.342;7.908;2022-08-01T05:51:12;13.60;;;5.97;;
48835;SDS011;62581;47.342;7.908;2022-08-01T05:53:40;7.13;;;5.38;;
48835;SDS011;62581;47.342;7.908;2022-08-01T05:56:07;8.38;;;5.90;;
48835;SDS011;62581;47.342;7.908;2022-08-01T05:58:34;9.77;;;6.18;;
48835;SDS011;62581;47.342;7.908;2022-08-01T06:01:01;6.07;;;5.47;;
48835;SDS011;62581;47.342;7.908;2022-08-01T06:03:28;8.95;;;6.05;;
48835;SDS011;62581;47.342;7.908;2022-08-01T06:05:56;6.32;;;5.43;;
48835;SDS011;62581;47.342;7.908;2022-08-01T06:08:23;9.65;;;5.60;;
48835;SDS011;62581;47.342;7.908;2022-08-01T06:10:51;7.75;;;5.35;;
48835;SDS011;62581;47.342;7.908;2022-08-01T06:13:18;10.02;;;5.63;;
48835;SDS011;62581;47.342;7.908;2022-08-01T06:15:45;8.45;;;5.70;;
48835;SDS011;62581;47.342;7.908;2022-08-01T06:18:13;6.40;;;5.18;;
48835;SDS011;62581;47.342;7.908;2022-08-01T06:20:40;5.80;;;4.68;;
48835;SDS011;62581;47.342;7.908;2022-08-01T06:23:07;6.65;;;5.30;;
48835;SDS011;62581;47.342;7.908;2022-08-01T06:25:34;4.22;;;3.65;;
48835;SDS011;62581;47.342;7.908;2022-08-01T06:28:03;5.28;;;3.63;;
48835;SDS011;62581;47.342;7.908;2022-08-01T06:32:57;5.65;;;3.88;;
48835;SDS011;62581;47.342;7.908;2022-08-01T06:35:25;4.85;;;4.10;;
48835;SDS011;62581;47.342;7.908;2022-08-01T06:37:53;5.40;;;4.15;;
48835;SDS011;62581;47.342;7.908;2022-08-01T06:40:20;5.80;;;4.60;;
48835;SDS011;62581;47.342;7.908;2022-08-01T06:42:47;4.38;;;3.97;;
48835;SDS011;62581;47.342;7.908;2022-08-01T06:45:15;5.60;;;4.28;;
48835;SDS011;62581;47.342;7.908;2022-08-01T06:47:43;6.53;;;3.92;;
48835;SDS011;62581;47.342;7.908;2022-08-01T06:50:11;4.72;;;4.25;;
48835;SDS011;62581;47.342;7.908;2022-08-01T06:52:39;7.05;;;4.32;;
48835;SDS011;62581;47.342;7.908;2022-08-01T06:55:06;6.25;;;4.40;;
48835;SDS011;62581;47.342;7.908;2022-08-01T06:57:34;6.95;;;4.80;;
48835;SDS011;62581;47.342;7.908;2022-08-01T07:00:03;7.30;;;4.88;;
48835;SDS011;62581;47.342;7.908;2022-08-01T07:02:34;4.28;;;3.88;;
48835;SDS011;62581;47.342;7.908;2022-08-01T07:05:02;6.57;;;4.68;;
48835;SDS011;62581;47.342;7.908;2022-08-01T07:07:30;7.30;;;5.30;;
48835;SDS011;62581;47.342;7.908;2022-08-01T07:09:57;6.78;;;5.45;;
48835;SDS011;62581;47.342;7.908;2022-08-01T07:12:24;7.47;;;5.00;;
48835;SDS011;62581;47.342;7.908;2022-08-01T07:14:51;8.05;;;5.60;;
48835;SDS011;62581;47.342;7.908;2022-08-01T07:17:17;6.78;;;5.07;;
48835;SDS011;62581;47.342;7.908;2022-08-01T07:19:46;6.03;;;4.40;;
48835;SDS011;62581;47.342;7.908;2022-08-01T07:22:14;7.75;;;5.15;;
48835;SDS011;62581;47.342;7.908;2022-08-01T07:24:41;8.77;;;4.85;;
48835;SDS011;62581;47.342;7.908;2022-08-01T07:27:08;7.40;;;5.10;;
48835;SDS011;62581;47.342;7.908;2022-08-01T07:29:35;4.97;;;4.47;;
48835;SDS011;62581;47.342;7.908;2022-08-01T07:32:02;7.60;;;4.82;;
48835;SDS011;62581;47.342;7.908;2022-08-01T07:34:29;5.97;;;4.88;;
48835;SDS011;62581;47.342;7.908;2022-08-01T07:36:57;5.85;;;4.30;;
48835;SDS011;62581;47.342;7.908;2022-08-01T07:39:24;5.88;;;4.68;;
48835;SDS011;62581;47.342;7.908;2022-08-01T07:41:51;6.38;;;4.10;;
48835;SDS011;62581;47.342;7.908;2022-08-01T07:44:18;5.90;;;5.00;;
48835;SDS011;62581;47.342;7.908;2022-08-01T07:46:45;6.93;;;4.53;;
48835;SDS011;62581;47.342;7.908;2022-08-01T07:49:12;6.25;;;4.40;;
48835;SDS011;62581;47.342;7.908;2022-08-01T07:51:39;8.65;;;4.63;;
48835;SDS011;62581;47.342;7.908;2022-08-01T07:54:07;6.22;;;5.05;;
48835;SDS011;62581;47.342;7.908;2022-08-01T07:56:34;8.35;;;5.18;;
48835;SDS011;62581;47.342;7.908;2022-08-01T07:59:01;5.95;;;4.57;;
48835;SDS011;62581;47.342;7.908;2022-08-01T08:01:28;7.97;;;4.38;;
48835;SDS011;62581;47.342;7.908;2022-08-01T08:03:55;7.15;;;4.30;;
48835;SDS011;62581;47.342;7.908;2022-08-01T08:06:22;5.40;;;4.20;;
48835;SDS011;62581;47.342;7.908;2022-08-01T08:08:49;5.15;;;4.32;;
48835;SDS011;62581;47.342;7.908;2022-08-01T08:11:18;4.70;;;4.30;;
48835;SDS011;62581;47.342;7.908;2022-08-01T08:16:11;8.00;;;4.57;;
48835;SDS011;62581;47.342;7.908;2022-08-01T08:18:38;5.53;;;4.00;;
48835;SDS011;62581;47.342;7.908;2022-08-01T08:21:05;7.22;;;3.83;;
48835;SDS011;62581;47.342;7.908;2022-08-01T08:23:32;5.65;;;3.97;;
48835;SDS011;62581;47.342;7.908;2022-08-01T08:26:18;6.07;;;4.28;;
48835;SDS011;62581;47.342;7.908;2022-08-01T08:28:47;6.93;;;4.38;;
48835;SDS011;62581;47.342;7.908;2022-08-01T08:31:14;4.82;;;4.00;;
48835;SDS011;62581;47.342;7.908;2022-08-01T08:33:41;5.80;;;3.88;;
48835;SDS011;62581;47.342;7.908;2022-08-01T08:36:07;5.32;;;3.67;;
48835;SDS011;62581;47.342;7.908;2022-08-01T08:38:36;4.05;;;3.72;;
48835;SDS011;62581;47.342;7.908;2022-08-01T08:41:03;4.68;;;3.88;;
48835;SDS011;62581;47.342;7.908;2022-08-01T08:43:31;5.60;;;3.50;;
48835;SDS011;62581;47.342;7.908;2022-08-01T08:45:59;6.70;;;3.47;;
48835;SDS011;62581;47.342;7.908;2022-08-01T08:48:27;5.38;;;3.83;;
48835;SDS011;62581;47.342;7.908;2022-08-01T08:50:55;7.95;;;3.38;;
48835;SDS011;62581;47.342;7.908;2022-08-01T08:53:25;5.30;;;3.28;;
48835;SDS011;62581;47.342;7.908;2022-08-01T08:55:53;3.78;;;2.95;;
48835;SDS011;62581;47.342;7.908;2022-08-01T08:58:22;5.38;;;2.83;;
48835;SDS011;62581;47.342;7.908;2022-08-01T09:00:54;5.13;;;3.10;;
48835;SDS011;62581;47.342;7.908;2022-08-01T09:03:21;3.85;;;3.05;;
48835;SDS011;62581;47.342;7.908;2022-08-01T09:05:48;3.33;;;2.80;;
48835;SDS011;62581;47.342;7.908;2022-08-01T09:08:15;3.97;;;3.30;;
48835;SDS011;62581;47.342;7.908;2022-08-01T09:10:42;3.15;;;2.83;;
48835;SDS011;62581;47.342;7.908;2022-08-01T09:15:40;2.93;;;2.60;;
48835;SDS011;62581;47.342;7.908;2022-08-01T09:21:06;3.70;;;2.90;;
48835;SDS011;62581;47.342;7.908;2022-08-01T09:23:36;2.67;;;2.38;;
48835;SDS011;62581;47.342;7.908;2022-08-01T09:26:04;3.50;;;2.72;;
48835;SDS011;62581;47.342;7.908;2022-08-01T09:28:32;3.70;;;2.42;;
48835;SDS011;62581;47.342;7.908;2022-08-01T09:30:59;3.83;;;2.58;;
48835;SDS011;62581;47.342;7.908;2022-08-01T09:33:47;2.88;;;2.67;;
48835;SDS011;62581;47.342;7.908;2022-08-01T09:36:15;5.10;;;2.45;;
48835;SDS011;62581;47.342;7.908;2022-08-01T09:38:43;4.07;;;2.63;;
48835;SDS011;62581;47.342;7.908;2022-08-01T09:41:10;2.60;;;2.40;;
48835;SDS011;62581;47.342;7.908;2022-08-01T09:43:37;3.92;;;2.15;;
48835;SDS011;62581;47.342;7.908;2022-08-01T09:46:05;4.13;;;2.28;;
48835;SDS011;62581;47.342;7.908;2022-08-01T09:48:36;2.58;;;2.13;;
48835;SDS011;62581;47.342;7.908;2022-08-01T09:51:06;2.30;;;2.10;;
48835;SDS011;62581;47.342;7.908;2022-08-01T09:53:39;1.70;;;1.60;;
48835;SDS011;62581;47.342;7.908;2022-08-01T09:56:08;4.18;;;2.00;;
48835;SDS011;62581;47.342;7.908;2022-08-01T09:58:48;3.47;;;1.95;;
48835;SDS011;62581;47.342;7.908;2022-08-01T10:01:15;2.03;;;1.65;;
48835;SDS011;62581;47.342;7.908;2022-08-01T10:03:42;2.40;;;1.65;;
48835;SDS011;62581;47.342;7.908;2022-08-01T10:06:20;3.95;;;1.52;;
48835;SDS011;62581;47.342;7.908;2022-08-01T10:08:48;2.92;;;1.52;;
48835;SDS011;62581;47.342;7.908;2022-08-01T10:11:15;3.72;;;1.40;;
48835;SDS011;62581;47.342;7.908;2022-08-01T10:13:43;3.20;;;1.50;;
48835;SDS011;62581;47.342;7.908;2022-08-01T10:16:10;1.25;;;1.15;;
48835;SDS011;62581;47.342;7.908;2022-08-01T10:18:39;2.70;;;1.50;;
48835;SDS011;62581;47.342;7.908;2022-08-01T10:21:07;2.53;;;1.40;;
48835;SDS011;62581;47.342;7.908;2022-08-01T10:23:36;3.28;;;1.30;;
48835;SDS011;62581;47.342;7.908;2022-08-01T10:26:04;3.40;;;1.40;;
48835;SDS011;62581;47.342;7.908;2022-08-01T10:28:34;1.88;;;1.38;;
48835;SDS011;62581;47.342;7.908;2022-08-01T10:31:02;3.70;;;1.50;;
48835;SDS011;62581;47.342;7.908;2022-08-01T10:33:29;3.33;;;1.20;;
48835;SDS011;62581;47.342;7.908;2022-08-01T10:35:57;1.97;;;1.43;;
48835;SDS011;62581;47.342;7.908;2022-08-01T10:38:24;4.68;;;1.40;;
48835;SDS011;62581;47.342;7.908;2022-08-01T10:40:54;2.05;;;1.17;;
48835;SDS011;62581;47.342;7.908;2022-08-01T10:43:25;1.98;;;1.45;;
48835;SDS011;62581;47.342;7.908;2022-08-01T10:45:52;1.77;;;1.67;;
48835;SDS011;62581;47.342;7.908;2022-08-01T10:48:20;2.38;;;1.70;;
48835;SDS011;62581;47.342;7.908;2022-08-01T10:50:54;2.28;;;1.40;;
48835;SDS011;62581;47.342;7.908;2022-08-01T10:53:24;1.60;;;1.45;;
48835;SDS011;62581;47.342;7.908;2022-08-01T10:55:57;1.75;;;1.30;;
48835;SDS011;62581;47.342;7.908;2022-08-01T10:58:27;1.60;;;1.50;;
48835;SDS011;62581;47.342;7.908;2022-08-01T11:01:16;2.17;;;1.38;;
48835;SDS011;62581;47.342;7.908;2022-08-01T11:03:57;1.60;;;1.48;;
48835;SDS011;62581;47.342;7.908;2022-08-01T11:06:34;1.42;;;1.25;;
48835;SDS011;62581;47.342;7.908;2022-08-01T11:09:29;3.15;;;1.48;;
48835;SDS011;62581;47.342;7.908;2022-08-01T11:12:06;3.28;;;1.30;;
48835;SDS011;62581;47.342;7.908;2022-08-01T11:17:59;1.38;;;1.27;;
48835;SDS011;62581;47.342;7.908;2022-08-01T11:20:31;2.30;;;1.42;;
48835;SDS011;62581;47.342;7.908;2022-08-01T11:28:38;3.63;;;1.40;;
48835;SDS011;62581;47.342;7.908;2022-08-01T11:31:25;3.60;;;1.40;;
48835;SDS011;62581;47.342;7.908;2022-08-01T11:33:53;2.05;;;1.50;;
48835;SDS011;62581;47.342;7.908;2022-08-01T11:36:20;1.33;;;1.23;;
48835;SDS011;62581;47.342;7.908;2022-08-01T11:38:48;1.80;;;1.50;;
48835;SDS011;62581;47.342;7.908;2022-08-01T11:41:38;1.60;;;1.50;;
48835;SDS011;62581;47.342;7.908;2022-08-01T11:44:06;1.75;;;1.42;;
48835;SDS011;62581;47.342;7.908;2022-08-01T11:46:47;1.30;;;1.20;;
48835;SDS011;62581;47.342;7.908;2022-08-01T11:49:31;1.40;;;1.30;;
48835;SDS011;62581;47.342;7.908;2022-08-01T11:52:25;1.50;;;1.40;;
48835;SDS011;62581;47.342;7.908;2022-08-01T11:54:54;1.98;;;1.55;;
48835;SDS011;62581;47.342;7.908;2022-08-01T11:59:51;1.73;;;1.10;;
48835;SDS011;62581;47.342;7.908;2022-08-01T12:02:20;2.30;;;1.67;;
48835;SDS011;62581;47.342;7.908;2022-08-01T12:04:53;1.63;;;1.20;;
48835;SDS011;62581;47.342;7.908;2022-08-01T12:07:21;3.30;;;1.50;;
48835;SDS011;62581;47.342;7.908;2022-08-01T12:09:56;2.15;;;1.17;;
48835;SDS011;62581;47.342;7.908;2022-08-01T12:12:29;1.92;;;1.30;;
48835;SDS011;62581;47.342;7.908;2022-08-01T12:14:57;3.50;;;1.42;;
48835;SDS011;62581;47.342;7.908;2022-08-01T12:17:29;2.53;;;1.27;;
48835;SDS011;62581;47.342;7.908;2022-08-01T12:19:58;4.00;;;1.25;;
48835;SDS011;62581;47.342;7.908;2022-08-01T12:22:25;2.60;;;1.23;;
48835;SDS011;62581;47.342;7.908;2022-08-01T12:24:52;2.40;;;1.27;;
48835;SDS011;62581;47.342;7.908;2022-08-01T12:27:26;1.70;;;1.33;;
48835;SDS011;62581;47.342;7.908;2022-08-01T12:29:57;2.22;;;1.48;;
48835;SDS011;62581;47.342;7.908;2022-08-01T12:32:26;1.52;;;1.00;;
48835;SDS011;62581;47.342;7.908;2022-08-01T12:34:56;2.70;;;1.30;;
48835;SDS011;62581;47.342;7.908;2022-08-01T12:37:26;1.40;;;1.17;;
48835;SDS011;62581;47.342;7.908;2022-08-01T12:39:53;1.15;;;1.00;;
48835;SDS011;62581;47.342;7.908;2022-08-01T12:42:20;2.28;;;1.20;;
48835;SDS011;62581;47.342;7.908;2022-08-01T12:44:48;1.02;;;0.93;;
48835;SDS011;62581;47.342;7.908;2022-08-01T12:47:18;1.40;;;1.15;;
48835;SDS011;62581;47.342;7.908;2022-08-01T12:49:46;1.35;;;0.90;;
48835;SDS011;62581;47.342;7.908;2022-08-01T12:55:04;1.50;;;1.20;;
48835;SDS011;62581;47.342;7.908;2022-08-01T12:57:35;1.75;;;0.95;;
48835;SDS011;62581;47.342;7.908;2022-08-01T13:00:13;2.50;;;0.93;;
48835;SDS011;62581;47.342;7.908;2022-08-01T13:02:43;0.98;;;0.85;;
48835;SDS011;62581;47.342;7.908;2022-08-01T13:05:11;1.95;;;1.10;;
48835;SDS011;62581;47.342;7.908;2022-08-01T13:07:49;2.08;;;1.00;;
48835;SDS011;62581;47.342;7.908;2022-08-01T13:10:24;1.83;;;1.10;;
48835;SDS011;62581;47.342;7.908;2022-08-01T13:12:53;1.85;;;0.95;;
48835;SDS011;62581;47.342;7.908;2022-08-01T13:15:23;0.95;;;0.80;;
48835;SDS011;62581;47.342;7.908;2022-08-01T13:17:53;1.80;;;1.20;;
48835;SDS011;62581;47.342;7.908;2022-08-01T13:20:21;1.15;;;0.90;;
48835;SDS011;62581;47.342;7.908;2022-08-01T13:22:50;1.20;;;0.90;;
48835;SDS011;62581;47.342;7.908;2022-08-01T13:25:17;0.88;;;0.70;;
48835;SDS011;62581;47.342;7.908;2022-08-01T13:27:44;1.48;;;1.00;;
48835;SDS011;62581;47.342;7.908;2022-08-01T13:30:12;0.80;;;0.80;;
48835;SDS011;62581;47.342;7.908;2022-08-01T13:32:40;1.10;;;0.90;;
48835;SDS011;62581;47.342;7.908;2022-08-01T13:35:11;1.17;;;1.05;;
48835;SDS011;62581;47.342;7.908;2022-08-01T13:37:39;1.80;;;0.98;;
48835;SDS011;62581;47.342;7.908;2022-08-01T13:40:09;1.77;;;1.00;;
48835;SDS011;62581;47.342;7.908;2022-08-01T13:42:37;2.13;;;1.05;;
48835;SDS011;62581;47.342;7.908;2022-08-01T13:47:35;1.10;;;1.10;;
48835;SDS011;62581;47.342;7.908;2022-08-01T13:50:02;1.27;;;1.02;;
48835;SDS011;62581;47.342;7.908;2022-08-01T13:52:31;1.63;;;1.05;;
48835;SDS011;62581;47.342;7.908;2022-08-01T13:54:58;2.38;;;1.23;;
48835;SDS011;62581;47.342;7.908;2022-08-01T13:57:26;2.35;;;0.90;;
48835;SDS011;62581;47.342;7.908;2022-08-01T14:02:20;1.27;;;0.90;;
48835;SDS011;62581;47.342;7.908;2022-08-01T14:04:47;1.20;;;1.00;;
48835;SDS011;62581;47.342;7.908;2022-08-01T14:07:14;3.10;;;1.00;;
48835;SDS011;62581;47.342;7.908;2022-08-01T14:09:42;1.33;;;1.20;;
48835;SDS011;62581;47.342;7.908;2022-08-01T14:12:09;1.10;;;0.90;;
48835;SDS011;62581;47.342;7.908;2022-08-01T14:14:36;1.70;;;1.60;;
48835;SDS011;62581;47.342;7.908;2022-08-01T14:19:30;1.35;;;1.25;;
48835;SDS011;62581;47.342;7.908;2022-08-01T14:21:57;3.42;;;1.08;;
48835;SDS011;62581;47.342;7.908;2022-08-01T14:24:24;1.27;;;1.05;;
48835;SDS011;62581;47.342;7.908;2022-08-01T14:26:53;2.03;;;1.20;;
48835;SDS011;62581;47.342;7.908;2022-08-01T14:29:20;1.83;;;1.08;;
48835;SDS011;62581;47.342;7.908;2022-08-01T14:31:47;1.20;;;1.10;;
48835;SDS011;62581;47.342;7.908;2022-08-01T14:34:14;2.03;;;1.25;;
48835;SDS011;62581;47.342;7.908;2022-08-01T14:36:41;1.13;;;0.90;;
48835;SDS011;62581;47.342;7.908;2022-08-01T14:39:08;2.90;;;1.20;;
48835;SDS011;62581;47.342;7.908;2022-08-01T14:41:35;1.70;;;1.30;;
48835;SDS011;62581;47.342;7.908;2022-08-01T14:44:04;1.27;;;1.13;;
48835;SDS011;62581;47.342;7.908;2022-08-01T14:46:31;0.93;;;0.90;;
48835;SDS011;62581;47.342;7.908;2022-08-01T14:48:58;1.52;;;1.10;;
48835;SDS011;62581;47.342;7.908;2022-08-01T14:51:25;1.60;;;1.00;;
48835;SDS011;62581;47.342;7.908;2022-08-01T14:53:52;1.45;;;1.05;;
48835;SDS011;62581;47.342;7.908;2022-08-01T14:56:19;2.67;;;1.13;;
48835;SDS011;62581;47.342;7.908;2022-08-01T14:58:46;1.55;;;1.27;;
48835;SDS011;62581;47.342;7.908;2022-08-01T15:01:14;1.60;;;1.08;;
48835;SDS011;62581;47.342;7.908;2022-08-01T15:03:42;1.63;;;1.20;;
48835;SDS011;62581;47.342;7.908;2022-08-01T15:06:10;1.50;;;1.35;;
48835;SDS011;62581;47.342;7.908;2022-08-01T15:08:37;2.40;;;1.13;;
48835;SDS011;62581;47.342;7.908;2022-08-01T15:11:05;2.50;;;1.13;;
48835;SDS011;62581;47.342;7.908;2022-08-01T15:13:33;1.50;;;1.25;;
48835;SDS011;62581;47.342;7.908;2022-08-01T15:16:00;1.33;;;1.13;;
48835;SDS011;62581;47.342;7.908;2022-08-01T15:18:28;1.50;;;0.93;;
48835;SDS011;62581;47.342;7.908;2022-08-01T15:20:55;3.67;;;1.42;;
48835;SDS011;62581;47.342;7.908;2022-08-01T15:23:22;5.85;;;1.27;;
48835;SDS011;62581;47.342;7.908;2022-08-01T15:25:49;1.70;;;1.30;;
48835;SDS011;62581;47.342;7.908;2022-08-01T15:28:16;1.30;;;1.20;;
48835;SDS011;62581;47.342;7.908;2022-08-01T15:30:44;2.72;;;1.45;;
48835;SDS011;62581;47.342;7.908;2022-08-01T15:33:11;1.07;;;1.07;;
48835;SDS011;62581;47.342;7.908;2022-08-01T15:35:40;2.70;;;1.43;;
48835;SDS011;62581;47.342;7.908;2022-08-01T15:38:07;2.05;;;1.63;;
48835;SDS011;62581;47.342;7.908;2022-08-01T15:40:34;1.40;;;1.30;;